Pagina principală
METAR-TAF:

METAR-TAF

Aeroporturi :

Seghedin, Ungaria

Latitudine: 46-15N, longitudine: 020-06E, elevație: 82 m

Observații meteo curente

Raportul a fost făcut în urmă cu 42 de minute, la 05:45 UTC
Vânt calm
Temperatură 10°C
Umiditate 93%
Presiune 1016 hPa
Vizibilitate: 4500 m
Nori puțini la o înălțime de 8300 picior
Total acoperit la o înălțime de 20000 picior
aer cețos

METAR: LHUD 220545Z 00000KT 4500 BR FEW083 OVC200 10/09 Q1016

Ora: 08:27 (06:27 UTC)


TAF: lipsă

Observații și prognoze meteo pentru peste 4.000 de aeroporturi (rapoarte METAR și TAF).

Stațiile disponibile sunt reprezentate pe hartă prin puncte galbene și roșii.

Țineți indicatorul mouse-ului pe punctul dorit pentru a vedea denumirea stației.

Apoi, faceți clic pentru a vedea observațiile și prognozele meteorologice.

Pentru a schimba harta: Pentru mărire, faceți clic pe butoanele verzi cu cruce neagră; pentru micșorare, pe butonul verde cu o liniuță; pentru hărți învecinate, pe săgețile verzi.


METAR-TAF: